• Join FlightAware (Why Join?)
  • Login
  • US Flag 
03:36AM EDT


 

Airport Tracker/Info


-or-


 

Live Flight TrackerFlight Track Log ✈ PDT4155 ✈ 17-Dec-2013 ✈ KBGM - KPHL

Flight Track Log - Related Links

Times and Time Zones

All times are in EST time to prevent confusion due to time zone crossing. See the PDT4155 flight status page for this flight to view local times or setup timezone preferences in your user account.

Time Position Orientation Groundspeed Altitude Reporting Facility
EST Latitude Longitude Course Direction KTS MPH feet Rate Location/Type
07:57AM 41.8770 -75.8714 159° South  Level Estimated
07:58AM 41.8217 -75.8535 153° Southeast  Level Estimated
07:59AM 41.7664 -75.8356 161° South  Level Estimated
08:00AM 41.7110 -75.8186 167° South  Level FlightAware Approximate
08:01AM 41.6556 -75.8017 167° South  Level FlightAware Approximate
08:02AM 41.6002 -75.7847 167° South  Level FlightAware Approximate
08:03AM 41.5450 -75.7669 162° South  Level Estimated
08:04AM 41.4902 -75.7466 164° South  Level FlightAware Approximate
08:05AM 41.4354 -75.7263 165° South  Level FlightAware Approximate
08:06AM 41.3806 -75.7061 165° South  Level FlightAware Approximate
08:07AM 41.3258 -75.6859 165° South  Level FlightAware Approximate
08:08AM 41.2705 -75.6686 163° South  Level Estimated
08:09AM 41.2160 -75.6469 163° South  Level FlightAware Approximate
08:10AM 41.1616 -75.6253 163° South  Level FlightAware Approximate
08:11AM 41.1071 -75.6037 163° South  Level FlightAware Approximate
08:12AM 41.0526 -75.5822 163° South  Level FlightAware Approximate
08:13AM 41.0028 -75.5675 190° South  Level Estimated
08:14AM 40.9520 -75.5606 174° South  Level FlightAware Approximate
08:15AM 40.9012 -75.5538 174° South  Level FlightAware Approximate
08:16AM 40.8504 -75.5470 174° South  Level FlightAware Approximate
08:17AM 40.8008 -75.5312 187° South  Level Estimated
08:18AM 40.7498 -75.5293 178° South  Level FlightAware Approximate
08:19AM 40.7003 -75.5129 190° South  Level Estimated
08:20AM 40.6494 -75.5171 184° South  Level FlightAware Approximate
08:21AM 40.5984 -75.5213 184° South  Level FlightAware Approximate
08:22AM 40.5495 -75.5022 180° South  Level Estimated
08:22AM 40.6000 -75.4833 143° Southeast 185 213 6,000  Level Philadelphia TRACON
08:23AM 40.5005 -75.4831 143° Southeast  Level Estimated
08:23AM 40.5500 -75.5000 194° South 185 213 5,100  Level Philadelphia TRACON
08:24AM 40.4516 -75.4641 143° Southeast  Level Estimated
08:24AM 40.4833 -75.4833 169° South 194 223 5,000  Level Philadelphia TRACON
08:25AM 40.4006 -75.4620 178° South  Level FlightAware Approximate
08:25AM 40.4333 -75.4667 166° South 192 221 5,000  Level Philadelphia TRACON
08:26AM 40.3520 -75.4415 143° Southeast  Level Estimated
08:26AM 40.3833 -75.4333 153° Southeast 193 222 5,000  Level Philadelphia TRACON
08:27AM 40.3034 -75.4211 143° Southeast  Level Estimated
08:27AM 40.3333 -75.4167 166° South 194 223 4,900  Level Philadelphia TRACON
08:28AM 40.2833 -75.4167 180° South 190 219 4,000 -480 Descending Philadelphia TRACON
08:29AM 40.2333 -75.4000 166° South 187 215 4,000 -60 Level Philadelphia TRACON
08:30AM 40.1833 -75.3833 166° South 180 207 3,900 -360 Descending Philadelphia TRACON
08:31AM 40.1500 -75.3667 159° South 162 186 3,300 -480 Descending Philadelphia TRACON
08:32AM 40.1000 -75.3500 166° South 165 190 3,000 -180 Descending Philadelphia TRACON
08:33AM 40.0667 -75.3167 143° Southeast 157 181 3,000 -60 Level Philadelphia TRACON
08:34AM 40.0167 -75.3000 166° South 156 180 2,900 -480 Descending Philadelphia TRACON
08:35AM 39.9833 -75.2833 159° South 153 176 2,100 -780 Descending Philadelphia TRACON
08:36AM 39.9500 -75.2667 159° South 112 129 1,400 -660 Descending Philadelphia TRACON
08:37AM 39.9167 -75.2500 159° South 108 124 800 -660 Descending Philadelphia TRACON
08:38AM 39.9000 -75.2333 143° Southeast 107 123 200 -720 Descending Philadelphia TRACON